TFM - Tactical Decision Aid
ID: Runway Winds: CIG/VIS Threshold:

KJFK - New York/Kennedy Int, NY, US

Updated at: 1913 UTC 26 Oct 2021
Latest TAF at: 1729 UTC 26 Oct 2021

TAF Board

Time1851Z 26/20Z 26/21Z 26/22Z 26/23Z 27/00Z 27/01Z 27/02Z 27/03Z 27/04Z 27/05Z 27/06Z 27/07Z 27/08Z>>
Type OBS PRVL
  [TEMP]  
PRVL
  [TEMP]  
PRVL PRVL PRVL PRVL PRVL PRVL PRVL PRVL PRVL PRVL PRVL
VIS 10 6
  [5]  
6
  [5]  
6 3 3 3 3 4 4 4 4 4 >6
CIG 95 15
  [15]  
15
  [15]  
15 6 6 6 6 12 12 12 12 12 25
Cover BKN BKN
  [BKN]  
BKN
  [BKN]  
BKN OVC OVC OVC OVC OVC OVC OVC OVC OVC BKN
FltCat VFR MVFR
  [MVFR]  
MVFR
  [MVFR]  
MVFR IFR IFR IFR IFR MVFR MVFR MVFR MVFR MVFR MVFR
WX -- -SHRA BR
  [-RA BR]  
-SHRA BR
  [-RA BR]  
-SHRA BR RA BR RA BR RA BR RA BR -RA BR -RA BR -RA BR -RA BR -RA BR VCSH
WDir 190 220
[220]
220
[220]
220 40 40 40 40 360 360 360 360 360 350
WSpd 5 12
  [12]  
12
  [12]  
12 14 14 14 14 21 21 21 21 21 26
WGst -- 18
  [18]  
18
  [18]  
18 20 20 20 20 31 31 31 31 31 38

TDA Impact Legend

  None Marginal Slight Moderate High
Visibility (sm) >5 3≤X≤5 1≤X<3 0.5≤X<1 <0.5
Ceiling (100 ft) >30 10≤X≤30 4≤X<10 2≤X<4 <2
Wind Speed (kt) <15 15≤X<25 25≤X<30 ≥30
Wind Gust (kt) <15 15≤X<25 25≤X<35 ≥35
Weather No Wx Reported VCTS -TS,-FZRA TS,FZRA +TS,+FZRA
TAF
KJFK 261729Z 2618/2724 22012G18KT 6SM -SHRA BR SCT007 BKN015
  TEMPO 2618/2622 5SM -RA BR
  FM262300 04014G20KT 3SM RA BR BKN006 OVC012
  FM270300 36021G31KT 4SM -RA BR OVC012
  FM270800 35026G38KT P6SM VCSH SCT015 BKN025
  FM271800 35020G30KT P6SM VCSH BKN025


METAR
KJFK 261851Z 19005KT 10SM FEW017 SCT026 BKN095 17/13 A2937 RMK AO2 SLP945 T01670133
KJFK 261845Z 20005KT 10SM FEW017 SCT026 BKN095 17/13 A2937 RMK AO2
KJFK 261832Z 21005KT 10SM FEW017 BKN026 BKN095 17/13 A2937 RMK AO2 BKN026 V SCT T01670133
KJFK 261751Z 23009KT 10SM BKN011 OVC019 16/13 A2937 RMK AO2 SLP946 60031 T01610133 10183 20150 50011
KJFK 261651Z 22011KT 10SM OVC011 15/13 A2938 RMK AO2 SLP948 T01500133
KJFK 261551Z 23016KT 10SM OVC009 15/14 A2937 RMK AO2 RAE08 SLP946 P0001 T01500139

Radar Display
Forecast Discussion